sensor_id;sensor_type;location;lat;lon;timestamp;P1;durP1;ratioP1;P2;durP2;ratioP2
568;SDS011;269;48.884;9.192;2022-07-22T00:01:05;7.63;;;7.03;;
568;SDS011;269;48.884;9.192;2022-07-22T00:03:32;7.50;;;6.80;;
568;SDS011;269;48.884;9.192;2022-07-22T00:05:59;7.27;;;6.60;;
568;SDS011;269;48.884;9.192;2022-07-22T00:08:26;7.93;;;7.20;;
568;SDS011;269;48.884;9.192;2022-07-22T00:10:53;7.63;;;6.87;;
568;SDS011;269;48.884;9.192;2022-07-22T00:13:20;7.70;;;7.03;;
568;SDS011;269;48.884;9.192;2022-07-22T00:15:47;8.50;;;7.07;;
568;SDS011;269;48.884;9.192;2022-07-22T00:18:16;7.67;;;7.07;;
568;SDS011;269;48.884;9.192;2022-07-22T00:20:42;7.30;;;6.80;;
568;SDS011;269;48.884;9.192;2022-07-22T00:23:10;8.30;;;7.50;;
568;SDS011;269;48.884;9.192;2022-07-22T00:25:37;7.83;;;7.23;;
568;SDS011;269;48.884;9.192;2022-07-22T00:28:04;7.83;;;7.23;;
568;SDS011;269;48.884;9.192;2022-07-22T00:30:31;6.97;;;6.47;;
568;SDS011;269;48.884;9.192;2022-07-22T00:32:58;7.27;;;6.73;;
568;SDS011;269;48.884;9.192;2022-07-22T00:35:26;8.10;;;7.30;;
568;SDS011;269;48.884;9.192;2022-07-22T00:37:53;7.43;;;6.70;;
568;SDS011;269;48.884;9.192;2022-07-22T00:40:20;7.10;;;6.60;;
568;SDS011;269;48.884;9.192;2022-07-22T00:42:47;7.13;;;6.50;;
568;SDS011;269;48.884;9.192;2022-07-22T00:45:16;8.70;;;8.10;;
568;SDS011;269;48.884;9.192;2022-07-22T00:47:43;9.27;;;7.13;;
568;SDS011;269;48.884;9.192;2022-07-22T00:50:10;8.17;;;7.47;;
568;SDS011;269;48.884;9.192;2022-07-22T00:52:41;7.50;;;6.90;;
568;SDS011;269;48.884;9.192;2022-07-22T00:55:10;7.50;;;6.93;;
568;SDS011;269;48.884;9.192;2022-07-22T00:57:37;7.50;;;6.90;;
568;SDS011;269;48.884;9.192;2022-07-22T01:00:05;7.73;;;7.03;;
568;SDS011;269;48.884;9.192;2022-07-22T01:02:33;7.60;;;7.07;;
568;SDS011;269;48.884;9.192;2022-07-22T01:05:01;7.70;;;7.10;;
568;SDS011;269;48.884;9.192;2022-07-22T01:07:28;7.73;;;7.03;;
568;SDS011;269;48.884;9.192;2022-07-22T01:09:56;7.53;;;6.90;;
568;SDS011;269;48.884;9.192;2022-07-22T01:12:23;7.40;;;6.80;;
568;SDS011;269;48.884;9.192;2022-07-22T01:14:51;8.03;;;7.17;;
568;SDS011;269;48.884;9.192;2022-07-22T01:17:18;7.90;;;7.40;;
568;SDS011;269;48.884;9.192;2022-07-22T01:19:45;7.97;;;7.27;;
568;SDS011;269;48.884;9.192;2022-07-22T01:22:13;7.13;;;6.50;;
568;SDS011;269;48.884;9.192;2022-07-22T01:24:40;7.50;;;6.90;;
568;SDS011;269;48.884;9.192;2022-07-22T01:27:07;7.20;;;6.63;;
568;SDS011;269;48.884;9.192;2022-07-22T01:29:35;7.93;;;7.27;;
568;SDS011;269;48.884;9.192;2022-07-22T01:32:02;7.20;;;6.60;;
568;SDS011;269;48.884;9.192;2022-07-22T01:34:29;6.63;;;6.10;;
568;SDS011;269;48.884;9.192;2022-07-22T01:36:56;7.33;;;6.83;;
568;SDS011;269;48.884;9.192;2022-07-22T01:39:25;7.03;;;6.53;;
568;SDS011;269;48.884;9.192;2022-07-22T01:41:52;6.80;;;6.30;;
568;SDS011;269;48.884;9.192;2022-07-22T01:44:19;6.97;;;6.40;;
568;SDS011;269;48.884;9.192;2022-07-22T01:46:46;7.10;;;6.50;;
568;SDS011;269;48.884;9.192;2022-07-22T01:49:13;7.67;;;7.07;;
568;SDS011;269;48.884;9.192;2022-07-22T01:51:41;7.50;;;6.93;;
568;SDS011;269;48.884;9.192;2022-07-22T01:54:09;7.67;;;7.07;;
568;SDS011;269;48.884;9.192;2022-07-22T01:56:37;7.37;;;6.73;;
568;SDS011;269;48.884;9.192;2022-07-22T01:59:04;7.93;;;7.33;;
568;SDS011;269;48.884;9.192;2022-07-22T02:01:32;7.70;;;7.10;;
568;SDS011;269;48.884;9.192;2022-07-22T02:03:59;6.93;;;6.43;;
568;SDS011;269;48.884;9.192;2022-07-22T02:06:26;7.17;;;6.67;;
568;SDS011;269;48.884;9.192;2022-07-22T02:08:55;7.50;;;7.00;;
568;SDS011;269;48.884;9.192;2022-07-22T02:11:22;7.23;;;6.73;;
568;SDS011;269;48.884;9.192;2022-07-22T02:13:51;7.50;;;6.90;;
568;SDS011;269;48.884;9.192;2022-07-22T02:16:18;7.37;;;6.87;;
568;SDS011;269;48.884;9.192;2022-07-22T02:18:45;7.77;;;7.03;;
568;SDS011;269;48.884;9.192;2022-07-22T02:21:12;7.40;;;6.90;;
568;SDS011;269;48.884;9.192;2022-07-22T02:23:39;8.17;;;7.57;;
568;SDS011;269;48.884;9.192;2022-07-22T02:26:06;7.93;;;7.23;;
568;SDS011;269;48.884;9.192;2022-07-22T02:28:33;6.93;;;6.43;;
568;SDS011;269;48.884;9.192;2022-07-22T02:31:02;7.50;;;6.90;;
568;SDS011;269;48.884;9.192;2022-07-22T02:33:29;8.10;;;7.47;;
568;SDS011;269;48.884;9.192;2022-07-22T02:35:56;8.47;;;7.70;;
568;SDS011;269;48.884;9.192;2022-07-22T02:38:23;7.33;;;6.83;;
568;SDS011;269;48.884;9.192;2022-07-22T02:40:50;8.13;;;7.63;;
568;SDS011;269;48.884;9.192;2022-07-22T02:43:19;7.90;;;7.23;;
568;SDS011;269;48.884;9.192;2022-07-22T02:45:46;7.90;;;7.30;;
568;SDS011;269;48.884;9.192;2022-07-22T02:48:14;7.50;;;6.90;;
568;SDS011;269;48.884;9.192;2022-07-22T02:50:44;8.60;;;7.80;;
568;SDS011;269;48.884;9.192;2022-07-22T02:53:12;8.43;;;7.83;;
568;SDS011;269;48.884;9.192;2022-07-22T02:55:38;8.63;;;8.03;;
568;SDS011;269;48.884;9.192;2022-07-22T02:58:06;9.27;;;8.33;;
568;SDS011;269;48.884;9.192;2022-07-22T03:00:34;8.03;;;7.43;;
568;SDS011;269;48.884;9.192;2022-07-22T03:03:03;8.40;;;7.70;;
568;SDS011;269;48.884;9.192;2022-07-22T03:05:31;7.90;;;7.40;;
568;SDS011;269;48.884;9.192;2022-07-22T03:07:59;8.23;;;7.53;;
568;SDS011;269;48.884;9.192;2022-07-22T03:10:26;8.77;;;7.97;;
568;SDS011;269;48.884;9.192;2022-07-22T03:12:53;8.93;;;8.23;;
568;SDS011;269;48.884;9.192;2022-07-22T03:15:20;9.50;;;8.70;;
568;SDS011;269;48.884;9.192;2022-07-22T03:17:47;8.80;;;8.00;;
568;SDS011;269;48.884;9.192;2022-07-22T03:20:14;8.47;;;7.70;;
568;SDS011;269;48.884;9.192;2022-07-22T03:22:42;8.40;;;7.70;;
568;SDS011;269;48.884;9.192;2022-07-22T03:25:09;8.40;;;7.80;;
568;SDS011;269;48.884;9.192;2022-07-22T03:27:37;8.13;;;7.53;;
568;SDS011;269;48.884;9.192;2022-07-22T03:30:04;8.97;;;8.27;;
568;SDS011;269;48.884;9.192;2022-07-22T03:32:32;9.53;;;8.73;;
568;SDS011;269;48.884;9.192;2022-07-22T03:34:59;8.70;;;8.10;;
568;SDS011;269;48.884;9.192;2022-07-22T03:37:26;8.63;;;7.93;;
568;SDS011;269;48.884;9.192;2022-07-22T03:39:54;8.60;;;7.90;;
568;SDS011;269;48.884;9.192;2022-07-22T03:42:21;8.03;;;7.53;;
568;SDS011;269;48.884;9.192;2022-07-22T03:44:48;8.20;;;7.60;;
568;SDS011;269;48.884;9.192;2022-07-22T03:47:17;8.47;;;7.77;;
568;SDS011;269;48.884;9.192;2022-07-22T03:49:45;9.17;;;8.47;;
568;SDS011;269;48.884;9.192;2022-07-22T03:52:12;8.40;;;7.80;;
568;SDS011;269;48.884;9.192;2022-07-22T03:54:39;9.13;;;8.43;;
568;SDS011;269;48.884;9.192;2022-07-22T03:57:07;8.97;;;8.27;;
568;SDS011;269;48.884;9.192;2022-07-22T03:59:35;9.23;;;8.37;;
568;SDS011;269;48.884;9.192;2022-07-22T04:02:02;8.50;;;7.90;;
568;SDS011;269;48.884;9.192;2022-07-22T04:04:30;8.50;;;7.90;;
568;SDS011;269;48.884;9.192;2022-07-22T04:06:57;8.97;;;8.37;;
568;SDS011;269;48.884;9.192;2022-07-22T04:09:23;9.70;;;8.90;;
568;SDS011;269;48.884;9.192;2022-07-22T04:11:51;8.63;;;7.93;;
568;SDS011;269;48.884;9.192;2022-07-22T04:14:19;8.50;;;7.90;;
568;SDS011;269;48.884;9.192;2022-07-22T04:16:49;8.70;;;7.97;;
568;SDS011;269;48.884;9.192;2022-07-22T04:19:16;10.40;;;9.50;;
568;SDS011;269;48.884;9.192;2022-07-22T04:21:43;9.27;;;8.57;;
568;SDS011;269;48.884;9.192;2022-07-22T04:24:10;10.37;;;9.50;;
568;SDS011;269;48.884;9.192;2022-07-22T04:26:37;9.70;;;8.97;;
568;SDS011;269;48.884;9.192;2022-07-22T04:29:05;9.93;;;9.23;;
568;SDS011;269;48.884;9.192;2022-07-22T04:31:33;9.73;;;9.03;;
568;SDS011;269;48.884;9.192;2022-07-22T04:34:00;10.97;;;9.93;;
568;SDS011;269;48.884;9.192;2022-07-22T04:36:28;10.17;;;9.23;;
568;SDS011;269;48.884;9.192;2022-07-22T04:38:55;10.40;;;9.63;;
568;SDS011;269;48.884;9.192;2022-07-22T04:41:22;11.20;;;10.40;;
568;SDS011;269;48.884;9.192;2022-07-22T04:43:49;11.13;;;10.30;;
568;SDS011;269;48.884;9.192;2022-07-22T04:46:16;11.10;;;10.20;;
568;SDS011;269;48.884;9.192;2022-07-22T04:48:45;10.57;;;9.77;;
568;SDS011;269;48.884;9.192;2022-07-22T04:51:12;10.90;;;9.90;;
568;SDS011;269;48.884;9.192;2022-07-22T04:53:39;10.80;;;10.00;;
568;SDS011;269;48.884;9.192;2022-07-22T04:56:07;11.77;;;10.90;;
568;SDS011;269;48.884;9.192;2022-07-22T04:58:34;10.03;;;9.33;;
568;SDS011;269;48.884;9.192;2022-07-22T05:01:01;10.50;;;9.60;;
568;SDS011;269;48.884;9.192;2022-07-22T05:03:28;10.63;;;9.73;;
568;SDS011;269;48.884;9.192;2022-07-22T05:05:57;11.43;;;10.50;;
568;SDS011;269;48.884;9.192;2022-07-22T05:08:24;10.30;;;9.50;;
568;SDS011;269;48.884;9.192;2022-07-22T05:10:51;10.83;;;10.03;;
568;SDS011;269;48.884;9.192;2022-07-22T05:13:18;10.83;;;10.00;;
568;SDS011;269;48.884;9.192;2022-07-22T05:15:45;11.17;;;10.20;;
568;SDS011;269;48.884;9.192;2022-07-22T05:18:12;10.13;;;9.30;;
568;SDS011;269;48.884;9.192;2022-07-22T05:20:39;9.87;;;9.13;;
568;SDS011;269;48.884;9.192;2022-07-22T05:23:08;9.27;;;8.60;;
568;SDS011;269;48.884;9.192;2022-07-22T05:25:35;10.77;;;9.80;;
568;SDS011;269;48.884;9.192;2022-07-22T05:28:03;10.50;;;9.80;;
568;SDS011;269;48.884;9.192;2022-07-22T05:30:31;11.00;;;10.20;;
568;SDS011;269;48.884;9.192;2022-07-22T05:32:58;10.47;;;9.67;;
568;SDS011;269;48.884;9.192;2022-07-22T05:35:25;10.80;;;10.00;;
568;SDS011;269;48.884;9.192;2022-07-22T05:37:52;10.30;;;9.50;;
568;SDS011;269;48.884;9.192;2022-07-22T05:40:21;9.30;;;8.60;;
568;SDS011;269;48.884;9.192;2022-07-22T05:42:48;9.70;;;8.80;;
568;SDS011;269;48.884;9.192;2022-07-22T05:45:15;11.10;;;10.30;;
568;SDS011;269;48.884;9.192;2022-07-22T05:47:42;10.47;;;9.67;;
568;SDS011;269;48.884;9.192;2022-07-22T05:50:09;11.20;;;10.27;;
568;SDS011;269;48.884;9.192;2022-07-22T05:52:36;11.00;;;10.00;;
568;SDS011;269;48.884;9.192;2022-07-22T05:55:04;11.30;;;10.50;;
568;SDS011;269;48.884;9.192;2022-07-22T05:57:33;10.10;;;9.40;;
568;SDS011;269;48.884;9.192;2022-07-22T06:00:00;10.30;;;9.53;;
568;SDS011;269;48.884;9.192;2022-07-22T06:02:27;10.00;;;9.20;;
568;SDS011;269;48.884;9.192;2022-07-22T06:04:55;9.97;;;9.27;;
568;SDS011;269;48.884;9.192;2022-07-22T06:07:22;10.27;;;9.47;;
568;SDS011;269;48.884;9.192;2022-07-22T06:09:51;10.73;;;9.83;;
568;SDS011;269;48.884;9.192;2022-07-22T06:12:19;11.13;;;10.33;;
568;SDS011;269;48.884;9.192;2022-07-22T06:14:47;10.87;;;10.07;;
568;SDS011;269;48.884;9.192;2022-07-22T06:17:16;11.90;;;10.90;;
568;SDS011;269;48.884;9.192;2022-07-22T06:19:43;11.23;;;10.30;;
568;SDS011;269;48.884;9.192;2022-07-22T06:22:10;11.50;;;10.50;;
568;SDS011;269;48.884;9.192;2022-07-22T06:24:37;11.30;;;10.40;;
568;SDS011;269;48.884;9.192;2022-07-22T06:27:04;11.17;;;10.37;;
568;SDS011;269;48.884;9.192;2022-07-22T06:29:31;12.17;;;11.23;;
568;SDS011;269;48.884;9.192;2022-07-22T06:32:00;12.37;;;11.47;;
568;SDS011;269;48.884;9.192;2022-07-22T06:34:27;13.30;;;12.00;;
568;SDS011;269;48.884;9.192;2022-07-22T06:36:54;12.47;;;11.57;;
568;SDS011;269;48.884;9.192;2022-07-22T06:39:22;12.50;;;11.50;;
568;SDS011;269;48.884;9.192;2022-07-22T06:41:48;12.13;;;11.23;;
568;SDS011;269;48.884;9.192;2022-07-22T06:44:15;12.10;;;11.20;;
568;SDS011;269;48.884;9.192;2022-07-22T06:46:43;11.40;;;10.50;;
568;SDS011;269;48.884;9.192;2022-07-22T06:49:11;12.80;;;11.70;;
568;SDS011;269;48.884;9.192;2022-07-22T06:51:38;14.23;;;12.87;;
568;SDS011;269;48.884;9.192;2022-07-22T06:54:06;13.33;;;12.40;;
568;SDS011;269;48.884;9.192;2022-07-22T06:56:33;12.73;;;11.63;;
568;SDS011;269;48.884;9.192;2022-07-22T06:59:00;12.23;;;11.13;;
568;SDS011;269;48.884;9.192;2022-07-22T07:01:27;11.83;;;10.93;;
568;SDS011;269;48.884;9.192;2022-07-22T07:03:54;11.83;;;10.97;;
568;SDS011;269;48.884;9.192;2022-07-22T07:06:23;11.30;;;10.40;;
568;SDS011;269;48.884;9.192;2022-07-22T07:08:50;11.03;;;10.10;;
568;SDS011;269;48.884;9.192;2022-07-22T07:11:17;11.50;;;10.50;;
568;SDS011;269;48.884;9.192;2022-07-22T07:13:44;11.03;;;10.03;;
568;SDS011;269;48.884;9.192;2022-07-22T07:16:12;9.30;;;8.50;;
568;SDS011;269;48.884;9.192;2022-07-22T07:18:39;9.87;;;9.03;;
568;SDS011;269;48.884;9.192;2022-07-22T07:21:06;10.50;;;9.60;;
568;SDS011;269;48.884;9.192;2022-07-22T07:23:34;9.63;;;8.93;;
568;SDS011;269;48.884;9.192;2022-07-22T07:26:01;9.30;;;8.60;;
568;SDS011;269;48.884;9.192;2022-07-22T07:28:28;9.87;;;9.17;;
568;SDS011;269;48.884;9.192;2022-07-22T07:30:56;10.97;;;10.17;;
568;SDS011;269;48.884;9.192;2022-07-22T07:33:23;11.20;;;10.33;;
568;SDS011;269;48.884;9.192;2022-07-22T07:35:50;10.67;;;9.77;;
568;SDS011;269;48.884;9.192;2022-07-22T07:38:17;10.50;;;9.60;;
568;SDS011;269;48.884;9.192;2022-07-22T07:40:45;9.10;;;8.40;;
568;SDS011;269;48.884;9.192;2022-07-22T07:43:12;9.13;;;8.33;;
568;SDS011;269;48.884;9.192;2022-07-22T07:45:40;9.63;;;8.83;;
568;SDS011;269;48.884;9.192;2022-07-22T07:48:07;9.97;;;9.10;;
568;SDS011;269;48.884;9.192;2022-07-22T07:50:34;9.27;;;8.57;;
568;SDS011;269;48.884;9.192;2022-07-22T07:53:01;8.73;;;8.10;;
568;SDS011;269;48.884;9.192;2022-07-22T07:55:28;10.00;;;9.27;;
568;SDS011;269;48.884;9.192;2022-07-22T07:57:57;9.80;;;9.10;;
568;SDS011;269;48.884;9.192;2022-07-22T08:00:24;9.30;;;8.60;;
568;SDS011;269;48.884;9.192;2022-07-22T08:02:53;10.10;;;9.40;;
568;SDS011;269;48.884;9.192;2022-07-22T08:05:21;12.17;;;11.17;;
568;SDS011;269;48.884;9.192;2022-07-22T08:07:49;9.40;;;8.70;;
568;SDS011;269;48.884;9.192;2022-07-22T08:10:16;11.00;;;10.20;;
568;SDS011;269;48.884;9.192;2022-07-22T08:12:44;9.37;;;8.57;;
568;SDS011;269;48.884;9.192;2022-07-22T08:15:12;11.00;;;10.10;;
568;SDS011;269;48.884;9.192;2022-07-22T08:17:40;10.43;;;9.67;;
568;SDS011;269;48.884;9.192;2022-07-22T08:20:07;9.00;;;8.27;;
568;SDS011;269;48.884;9.192;2022-07-22T08:22:35;10.37;;;9.57;;
568;SDS011;269;48.884;9.192;2022-07-22T08:25:02;9.40;;;8.70;;
568;SDS011;269;48.884;9.192;2022-07-22T08:27:29;9.20;;;8.40;;
568;SDS011;269;48.884;9.192;2022-07-22T08:29:57;9.47;;;8.77;;
568;SDS011;269;48.884;9.192;2022-07-22T08:32:25;8.23;;;7.73;;
568;SDS011;269;48.884;9.192;2022-07-22T08:34:52;9.20;;;8.50;;
568;SDS011;269;48.884;9.192;2022-07-22T08:37:19;10.40;;;9.70;;
568;SDS011;269;48.884;9.192;2022-07-22T08:39:46;11.47;;;10.57;;
568;SDS011;269;48.884;9.192;2022-07-22T08:42:13;10.10;;;9.20;;
568;SDS011;269;48.884;9.192;2022-07-22T08:44:40;9.80;;;9.00;;
568;SDS011;269;48.884;9.192;2022-07-22T08:47:07;10.57;;;9.60;;
568;SDS011;269;48.884;9.192;2022-07-22T08:49:36;9.17;;;8.50;;
568;SDS011;269;48.884;9.192;2022-07-22T08:52:06;9.23;;;8.57;;
568;SDS011;269;48.884;9.192;2022-07-22T08:54:33;9.13;;;8.37;;
568;SDS011;269;48.884;9.192;2022-07-22T08:57:00;8.50;;;7.90;;
568;SDS011;269;48.884;9.192;2022-07-22T08:59:27;9.40;;;8.60;;
568;SDS011;269;48.884;9.192;2022-07-22T09:02:00;9.70;;;8.90;;
568;SDS011;269;48.884;9.192;2022-07-22T09:04:29;9.63;;;8.93;;
568;SDS011;269;48.884;9.192;2022-07-22T09:06:58;10.20;;;9.40;;
568;SDS011;269;48.884;9.192;2022-07-22T09:09:32;10.50;;;9.60;;
568;SDS011;269;48.884;9.192;2022-07-22T09:12:03;9.90;;;9.10;;
568;SDS011;269;48.884;9.192;2022-07-22T09:14:42;9.20;;;8.50;;
568;SDS011;269;48.884;9.192;2022-07-22T09:17:27;9.20;;;8.40;;
568;SDS011;269;48.884;9.192;2022-07-22T09:19:55;8.73;;;7.93;;
568;SDS011;269;48.884;9.192;2022-07-22T09:22:31;9.07;;;8.43;;
568;SDS011;269;48.884;9.192;2022-07-22T09:27:54;10.33;;;9.40;;
568;SDS011;269;48.884;9.192;2022-07-22T09:30:23;10.17;;;9.30;;
568;SDS011;269;48.884;9.192;2022-07-22T09:32:52;9.47;;;8.77;;
568;SDS011;269;48.884;9.192;2022-07-22T09:35:22;9.07;;;8.37;;
568;SDS011;269;48.884;9.192;2022-07-22T09:37:52;9.77;;;8.97;;
568;SDS011;269;48.884;9.192;2022-07-22T09:40:21;8.70;;;8.07;;
568;SDS011;269;48.884;9.192;2022-07-22T09:42:51;9.50;;;8.80;;
568;SDS011;269;48.884;9.192;2022-07-22T09:45:20;9.27;;;8.47;;
568;SDS011;269;48.884;9.192;2022-07-22T09:47:48;8.93;;;8.30;;
568;SDS011;269;48.884;9.192;2022-07-22T09:50:17;8.90;;;8.10;;
568;SDS011;269;48.884;9.192;2022-07-22T09:52:55;10.77;;;8.30;;
568;SDS011;269;48.884;9.192;2022-07-22T09:55:24;8.70;;;8.10;;
568;SDS011;269;48.884;9.192;2022-07-22T09:57:52;8.80;;;8.10;;
568;SDS011;269;48.884;9.192;2022-07-22T10:00:22;9.43;;;8.83;;
568;SDS011;269;48.884;9.192;2022-07-22T10:02:51;9.40;;;8.60;;
568;SDS011;269;48.884;9.192;2022-07-22T10:05:21;9.43;;;8.83;;
568;SDS011;269;48.884;9.192;2022-07-22T10:07:51;9.77;;;9.07;;
568;SDS011;269;48.884;9.192;2022-07-22T10:10:21;9.90;;;9.10;;
568;SDS011;269;48.884;9.192;2022-07-22T10:12:51;10.17;;;9.47;;
568;SDS011;269;48.884;9.192;2022-07-22T10:15:20;12.77;;;11.57;;
568;SDS011;269;48.884;9.192;2022-07-22T10:17:49;23.33;;;21.13;;
568;SDS011;269;48.884;9.192;2022-07-22T10:20:19;14.30;;;12.80;;
568;SDS011;269;48.884;9.192;2022-07-22T10:22:56;10.50;;;9.70;;
568;SDS011;269;48.884;9.192;2022-07-22T10:25:26;9.17;;;8.47;;
568;SDS011;269;48.884;9.192;2022-07-22T10:27:55;8.90;;;8.30;;
568;SDS011;269;48.884;9.192;2022-07-22T10:30:25;9.20;;;8.50;;
568;SDS011;269;48.884;9.192;2022-07-22T10:33:03;8.80;;;8.00;;
568;SDS011;269;48.884;9.192;2022-07-22T10:35:33;9.27;;;8.13;;
568;SDS011;269;48.884;9.192;2022-07-22T10:38:02;8.83;;;8.00;;
568;SDS011;269;48.884;9.192;2022-07-22T10:40:45;8.63;;;8.00;;
568;SDS011;269;48.884;9.192;2022-07-22T10:43:15;8.10;;;7.50;;
568;SDS011;269;48.884;9.192;2022-07-22T10:45:44;8.47;;;7.73;;
568;SDS011;269;48.884;9.192;2022-07-22T10:48:15;8.20;;;7.50;;
568;SDS011;269;48.884;9.192;2022-07-22T10:50:49;9.20;;;8.40;;
568;SDS011;269;48.884;9.192;2022-07-22T10:53:21;8.50;;;7.70;;
568;SDS011;269;48.884;9.192;2022-07-22T10:56:06;8.33;;;7.60;;
568;SDS011;269;48.884;9.192;2022-07-22T10:58:41;8.60;;;8.00;;
568;SDS011;269;48.884;9.192;2022-07-22T11:01:10;8.57;;;7.97;;
568;SDS011;269;48.884;9.192;2022-07-22T11:03:40;8.87;;;8.10;;
568;SDS011;269;48.884;9.192;2022-07-22T11:06:17;8.70;;;8.00;;
568;SDS011;269;48.884;9.192;2022-07-22T11:08:48;7.93;;;7.33;;
568;SDS011;269;48.884;9.192;2022-07-22T11:11:18;8.03;;;7.53;;
568;SDS011;269;48.884;9.192;2022-07-22T11:14:14;9.27;;;8.47;;
568;SDS011;269;48.884;9.192;2022-07-22T11:16:43;8.23;;;7.53;;
568;SDS011;269;48.884;9.192;2022-07-22T11:19:10;9.33;;;8.40;;
568;SDS011;269;48.884;9.192;2022-07-22T11:21:37;8.90;;;8.27;;
568;SDS011;269;48.884;9.192;2022-07-22T11:24:05;8.03;;;7.43;;
568;SDS011;269;48.884;9.192;2022-07-22T11:26:39;8.20;;;7.67;;
568;SDS011;269;48.884;9.192;2022-07-22T11:29:09;8.33;;;7.73;;
568;SDS011;269;48.884;9.192;2022-07-22T11:31:42;9.30;;;8.50;;
568;SDS011;269;48.884;9.192;2022-07-22T11:34:10;8.37;;;7.60;;
568;SDS011;269;48.884;9.192;2022-07-22T11:36:39;8.23;;;7.63;;
568;SDS011;269;48.884;9.192;2022-07-22T11:39:08;7.97;;;7.47;;
568;SDS011;269;48.884;9.192;2022-07-22T11:41:37;7.97;;;7.37;;
568;SDS011;269;48.884;9.192;2022-07-22T11:44:06;8.13;;;7.53;;
568;SDS011;269;48.884;9.192;2022-07-22T11:46:37;7.70;;;7.20;;
568;SDS011;269;48.884;9.192;2022-07-22T11:49:05;7.83;;;7.33;;
568;SDS011;269;48.884;9.192;2022-07-22T11:51:34;8.57;;;7.87;;
568;SDS011;269;48.884;9.192;2022-07-22T11:54:02;7.83;;;7.23;;
568;SDS011;269;48.884;9.192;2022-07-22T11:56:31;8.33;;;7.57;;
568;SDS011;269;48.884;9.192;2022-07-22T11:59:01;8.67;;;8.00;;
568;SDS011;269;48.884;9.192;2022-07-22T12:01:31;8.30;;;7.70;;
568;SDS011;269;48.884;9.192;2022-07-22T12:04:00;8.70;;;8.10;;
568;SDS011;269;48.884;9.192;2022-07-22T12:06:29;8.33;;;7.67;;
568;SDS011;269;48.884;9.192;2022-07-22T12:09:02;8.37;;;7.80;;
568;SDS011;269;48.884;9.192;2022-07-22T12:11:32;8.67;;;8.00;;
568;SDS011;269;48.884;9.192;2022-07-22T12:14:05;7.50;;;7.00;;
568;SDS011;269;48.884;9.192;2022-07-22T12:16:34;8.40;;;7.77;;
568;SDS011;269;48.884;9.192;2022-07-22T12:19:07;8.00;;;7.30;;
568;SDS011;269;48.884;9.192;2022-07-22T12:21:36;7.60;;;7.10;;
568;SDS011;269;48.884;9.192;2022-07-22T12:24:16;7.80;;;7.30;;
568;SDS011;269;48.884;9.192;2022-07-22T12:26:55;8.13;;;7.43;;
568;SDS011;269;48.884;9.192;2022-07-22T12:29:26;7.50;;;7.00;;
568;SDS011;269;48.884;9.192;2022-07-22T12:31:57;7.37;;;6.87;;
568;SDS011;269;48.884;9.192;2022-07-22T12:34:30;7.40;;;6.90;;
568;SDS011;269;48.884;9.192;2022-07-22T12:37:00;7.43;;;6.83;;
568;SDS011;269;48.884;9.192;2022-07-22T12:39:28;7.70;;;7.10;;
568;SDS011;269;48.884;9.192;2022-07-22T12:41:58;7.73;;;7.20;;
568;SDS011;269;48.884;9.192;2022-07-22T12:44:29;7.33;;;6.83;;
568;SDS011;269;48.884;9.192;2022-07-22T12:46:57;7.63;;;6.97;;
568;SDS011;269;48.884;9.192;2022-07-22T12:49:24;7.10;;;6.50;;
568;SDS011;269;48.884;9.192;2022-07-22T12:52:04;7.60;;;7.10;;
568;SDS011;269;48.884;9.192;2022-07-22T12:54:35;7.13;;;6.63;;
568;SDS011;269;48.884;9.192;2022-07-22T12:57:04;7.17;;;6.57;;
568;SDS011;269;48.884;9.192;2022-07-22T12:59:33;7.13;;;6.63;;
568;SDS011;269;48.884;9.192;2022-07-22T13:02:02;7.77;;;7.10;;
568;SDS011;269;48.884;9.192;2022-07-22T13:04:32;7.40;;;6.90;;
568;SDS011;269;48.884;9.192;2022-07-22T13:06:59;7.00;;;6.57;;
568;SDS011;269;48.884;9.192;2022-07-22T13:09:27;6.70;;;6.20;;
568;SDS011;269;48.884;9.192;2022-07-22T13:11:55;6.80;;;6.30;;
568;SDS011;269;48.884;9.192;2022-07-22T13:14:24;7.43;;;6.93;;
568;SDS011;269;48.884;9.192;2022-07-22T13:16:54;7.10;;;6.70;;
568;SDS011;269;48.884;9.192;2022-07-22T13:19:22;7.30;;;6.77;;
568;SDS011;269;48.884;9.192;2022-07-22T13:21:49;6.37;;;5.97;;
568;SDS011;269;48.884;9.192;2022-07-22T13:24:16;7.77;;;7.17;;
568;SDS011;269;48.884;9.192;2022-07-22T13:26:43;7.10;;;6.60;;
568;SDS011;269;48.884;9.192;2022-07-22T13:29:11;7.30;;;6.70;;
568;SDS011;269;48.884;9.192;2022-07-22T13:31:38;7.63;;;7.03;;
568;SDS011;269;48.884;9.192;2022-07-22T13:34:06;7.10;;;6.70;;
568;SDS011;269;48.884;9.192;2022-07-22T13:36:33;7.43;;;7.00;;
568;SDS011;269;48.884;9.192;2022-07-22T13:39:01;7.60;;;7.10;;
568;SDS011;269;48.884;9.192;2022-07-22T13:41:30;7.43;;;6.90;;
568;SDS011;269;48.884;9.192;2022-07-22T13:43:57;7.20;;;6.60;;
568;SDS011;269;48.884;9.192;2022-07-22T13:46:25;7.60;;;6.77;;
568;SDS011;269;48.884;9.192;2022-07-22T13:48:52;6.80;;;6.30;;
568;SDS011;269;48.884;9.192;2022-07-22T13:51:21;7.07;;;6.57;;
568;SDS011;269;48.884;9.192;2022-07-22T13:53:51;6.93;;;6.43;;
568;SDS011;269;48.884;9.192;2022-07-22T13:56:19;6.37;;;5.97;;
568;SDS011;269;48.884;9.192;2022-07-22T13:58:46;7.53;;;6.47;;
568;SDS011;269;48.884;9.192;2022-07-22T14:01:13;6.63;;;6.23;;
568;SDS011;269;48.884;9.192;2022-07-22T14:03:42;6.77;;;6.27;;
568;SDS011;269;48.884;9.192;2022-07-22T14:06:12;7.07;;;6.60;;
568;SDS011;269;48.884;9.192;2022-07-22T14:08:40;6.20;;;5.73;;
568;SDS011;269;48.884;9.192;2022-07-22T14:11:07;7.50;;;6.90;;
568;SDS011;269;48.884;9.192;2022-07-22T14:13:36;6.50;;;6.07;;
568;SDS011;269;48.884;9.192;2022-07-22T14:16:07;7.17;;;6.63;;
568;SDS011;269;48.884;9.192;2022-07-22T14:18:51;6.93;;;6.43;;
568;SDS011;269;48.884;9.192;2022-07-22T14:21:19;6.47;;;6.07;;
568;SDS011;269;48.884;9.192;2022-07-22T14:23:47;7.00;;;6.60;;
568;SDS011;269;48.884;9.192;2022-07-22T14:26:16;6.70;;;6.03;;
568;SDS011;269;48.884;9.192;2022-07-22T14:28:45;6.93;;;6.43;;
568;SDS011;269;48.884;9.192;2022-07-22T14:31:12;6.30;;;5.90;;
568;SDS011;269;48.884;9.192;2022-07-22T14:33:40;7.10;;;6.50;;
568;SDS011;269;48.884;9.192;2022-07-22T14:36:09;6.60;;;6.10;;
568;SDS011;269;48.884;9.192;2022-07-22T14:38:39;6.40;;;5.90;;
568;SDS011;269;48.884;9.192;2022-07-22T14:41:10;6.90;;;6.50;;
568;SDS011;269;48.884;9.192;2022-07-22T14:43:37;7.07;;;6.57;;
568;SDS011;269;48.884;9.192;2022-07-22T14:46:06;7.27;;;6.77;;
568;SDS011;269;48.884;9.192;2022-07-22T14:48:38;7.10;;;6.60;;
568;SDS011;269;48.884;9.192;2022-07-22T14:51:07;6.40;;;5.90;;
568;SDS011;269;48.884;9.192;2022-07-22T14:53:34;6.63;;;6.23;;
568;SDS011;269;48.884;9.192;2022-07-22T14:56:01;6.40;;;5.90;;
568;SDS011;269;48.884;9.192;2022-07-22T14:58:30;7.10;;;6.50;;
568;SDS011;269;48.884;9.192;2022-07-22T15:00:58;6.87;;;6.37;;
568;SDS011;269;48.884;9.192;2022-07-22T15:03:25;6.63;;;6.23;;
568;SDS011;269;48.884;9.192;2022-07-22T15:05:52;6.40;;;6.00;;
568;SDS011;269;48.884;9.192;2022-07-22T15:08:19;7.50;;;6.93;;
568;SDS011;269;48.884;9.192;2022-07-22T15:10:46;6.17;;;5.77;;
568;SDS011;269;48.884;9.192;2022-07-22T15:13:13;6.70;;;6.10;;
568;SDS011;269;48.884;9.192;2022-07-22T15:15:44;7.10;;;6.50;;
568;SDS011;269;48.884;9.192;2022-07-22T15:18:12;7.20;;;6.70;;
568;SDS011;269;48.884;9.192;2022-07-22T15:20:39;7.07;;;6.57;;
568;SDS011;269;48.884;9.192;2022-07-22T15:23:07;6.30;;;5.87;;
568;SDS011;269;48.884;9.192;2022-07-22T15:25:35;7.93;;;6.03;;
568;SDS011;269;48.884;9.192;2022-07-22T15:28:03;6.23;;;5.83;;
568;SDS011;269;48.884;9.192;2022-07-22T15:30:31;8.47;;;6.60;;
568;SDS011;269;48.884;9.192;2022-07-22T15:33:00;6.90;;;6.40;;
568;SDS011;269;48.884;9.192;2022-07-22T15:35:27;6.70;;;6.20;;
568;SDS011;269;48.884;9.192;2022-07-22T15:37:54;7.30;;;6.67;;
568;SDS011;269;48.884;9.192;2022-07-22T15:40:22;6.93;;;6.43;;
568;SDS011;269;48.884;9.192;2022-07-22T15:42:49;7.17;;;6.50;;
568;SDS011;269;48.884;9.192;2022-07-22T15:45:17;6.67;;;6.07;;
568;SDS011;269;48.884;9.192;2022-07-22T15:47:43;7.23;;;6.53;;
568;SDS011;269;48.884;9.192;2022-07-22T15:50:12;6.70;;;6.23;;